sensor_id;sensor_type;location;lat;lon;timestamp;P1;durP1;ratioP1;P2;durP2;ratioP2
16524;SDS011;8375;33.594;-117.718;2022-12-08T00:01:48;1.90;;;0.67;;
16524;SDS011;8375;33.594;-117.718;2022-12-08T00:04:17;0.97;;;0.53;;
16524;SDS011;8375;33.594;-117.718;2022-12-08T00:06:45;3.33;;;0.77;;
16524;SDS011;8375;33.594;-117.718;2022-12-08T00:09:34;1.73;;;0.67;;
16524;SDS011;8375;33.594;-117.718;2022-12-08T00:12:04;2.83;;;0.80;;
16524;SDS011;8375;33.594;-117.718;2022-12-08T00:14:34;1.97;;;0.80;;
16524;SDS011;8375;33.594;-117.718;2022-12-08T00:17:05;1.63;;;0.60;;
16524;SDS011;8375;33.594;-117.718;2022-12-08T00:19:34;1.23;;;0.60;;
16524;SDS011;8375;33.594;-117.718;2022-12-08T00:22:04;1.87;;;0.60;;
16524;SDS011;8375;33.594;-117.718;2022-12-08T00:24:35;3.70;;;1.03;;
16524;SDS011;8375;33.594;-117.718;2022-12-08T00:27:05;2.20;;;1.00;;
16524;SDS011;8375;33.594;-117.718;2022-12-08T00:29:34;3.40;;;0.70;;
16524;SDS011;8375;33.594;-117.718;2022-12-08T00:32:03;5.60;;;0.87;;
16524;SDS011;8375;33.594;-117.718;2022-12-08T00:34:32;3.93;;;0.70;;
16524;SDS011;8375;33.594;-117.718;2022-12-08T00:37:01;2.50;;;0.70;;
16524;SDS011;8375;33.594;-117.718;2022-12-08T00:39:30;2.30;;;0.87;;
16524;SDS011;8375;33.594;-117.718;2022-12-08T00:42:00;3.67;;;1.00;;
16524;SDS011;8375;33.594;-117.718;2022-12-08T00:44:38;3.17;;;0.90;;
16524;SDS011;8375;33.594;-117.718;2022-12-08T00:47:07;2.47;;;1.13;;
16524;SDS011;8375;33.594;-117.718;2022-12-08T00:49:36;2.80;;;0.97;;
16524;SDS011;8375;33.594;-117.718;2022-12-08T00:52:05;2.83;;;1.30;;
16524;SDS011;8375;33.594;-117.718;2022-12-08T00:54:34;3.53;;;0.93;;
16524;SDS011;8375;33.594;-117.718;2022-12-08T00:57:04;4.60;;;1.37;;
16524;SDS011;8375;33.594;-117.718;2022-12-08T00:59:33;2.97;;;1.20;;
16524;SDS011;8375;33.594;-117.718;2022-12-08T01:02:02;2.83;;;1.10;;
16524;SDS011;8375;33.594;-117.718;2022-12-08T01:04:30;4.30;;;1.20;;
16524;SDS011;8375;33.594;-117.718;2022-12-08T01:06:59;3.40;;;1.10;;
16524;SDS011;8375;33.594;-117.718;2022-12-08T01:09:28;3.20;;;1.13;;
16524;SDS011;8375;33.594;-117.718;2022-12-08T01:11:57;3.37;;;1.07;;
16524;SDS011;8375;33.594;-117.718;2022-12-08T01:14:27;3.43;;;1.17;;
16524;SDS011;8375;33.594;-117.718;2022-12-08T01:16:56;5.73;;;1.60;;
16524;SDS011;8375;33.594;-117.718;2022-12-08T01:19:25;3.20;;;1.03;;
16524;SDS011;8375;33.594;-117.718;2022-12-08T01:21:53;2.40;;;1.03;;
16524;SDS011;8375;33.594;-117.718;2022-12-08T01:24:23;4.13;;;1.30;;
16524;SDS011;8375;33.594;-117.718;2022-12-08T01:26:52;4.20;;;1.40;;
16524;SDS011;8375;33.594;-117.718;2022-12-08T01:29:20;3.63;;;1.93;;
16524;SDS011;8375;33.594;-117.718;2022-12-08T01:31:51;2.20;;;1.90;;
16524;SDS011;8375;33.594;-117.718;2022-12-08T01:34:19;5.80;;;1.80;;
16524;SDS011;8375;33.594;-117.718;2022-12-08T01:36:48;3.60;;;1.67;;
16524;SDS011;8375;33.594;-117.718;2022-12-08T01:39:17;2.60;;;1.60;;
16524;SDS011;8375;33.594;-117.718;2022-12-08T01:41:46;3.70;;;1.60;;
16524;SDS011;8375;33.594;-117.718;2022-12-08T01:47:25;2.80;;;1.10;;
16524;SDS011;8375;33.594;-117.718;2022-12-08T01:49:59;5.20;;;1.50;;
16524;SDS011;8375;33.594;-117.718;2022-12-08T01:52:30;3.57;;;1.37;;
16524;SDS011;8375;33.594;-117.718;2022-12-08T01:55:03;2.90;;;1.40;;
16524;SDS011;8375;33.594;-117.718;2022-12-08T01:57:42;4.80;;;1.90;;
16524;SDS011;8375;33.594;-117.718;2022-12-08T02:00:15;4.07;;;1.47;;
16524;SDS011;8375;33.594;-117.718;2022-12-08T02:03:01;4.10;;;1.60;;
16524;SDS011;8375;33.594;-117.718;2022-12-08T02:05:40;6.47;;;1.73;;
16524;SDS011;8375;33.594;-117.718;2022-12-08T02:08:19;7.03;;;2.10;;
16524;SDS011;8375;33.594;-117.718;2022-12-08T02:10:57;7.57;;;2.00;;
16524;SDS011;8375;33.594;-117.718;2022-12-08T02:13:40;7.17;;;2.10;;
16524;SDS011;8375;33.594;-117.718;2022-12-08T02:16:17;6.03;;;1.70;;
16524;SDS011;8375;33.594;-117.718;2022-12-08T02:19:15;5.43;;;2.20;;
16524;SDS011;8375;33.594;-117.718;2022-12-08T02:22:08;12.77;;;4.40;;
16524;SDS011;8375;33.594;-117.718;2022-12-08T02:24:43;4.47;;;1.67;;
16524;SDS011;8375;33.594;-117.718;2022-12-08T02:27:31;8.90;;;2.30;;
16524;SDS011;8375;33.594;-117.718;2022-12-08T02:30:19;6.47;;;1.87;;
16524;SDS011;8375;33.594;-117.718;2022-12-08T02:36:18;5.87;;;1.77;;
16524;SDS011;8375;33.594;-117.718;2022-12-08T02:39:01;3.03;;;1.30;;
16524;SDS011;8375;33.594;-117.718;2022-12-08T02:41:45;4.10;;;1.50;;
16524;SDS011;8375;33.594;-117.718;2022-12-08T02:44:27;5.07;;;1.67;;
16524;SDS011;8375;33.594;-117.718;2022-12-08T02:47:11;3.27;;;1.83;;
16524;SDS011;8375;33.594;-117.718;2022-12-08T02:49:44;4.63;;;1.60;;
16524;SDS011;8375;33.594;-117.718;2022-12-08T02:55:18;3.27;;;1.90;;
16524;SDS011;8375;33.594;-117.718;2022-12-08T02:58:11;6.70;;;1.90;;
16524;SDS011;8375;33.594;-117.718;2022-12-08T03:01:04;4.07;;;1.70;;
16524;SDS011;8375;33.594;-117.718;2022-12-08T03:04:00;3.30;;;1.87;;
16524;SDS011;8375;33.594;-117.718;2022-12-08T03:06:46;4.57;;;1.80;;
16524;SDS011;8375;33.594;-117.718;2022-12-08T03:09:27;7.97;;;1.80;;
16524;SDS011;8375;33.594;-117.718;2022-12-08T03:12:04;3.73;;;1.33;;
16524;SDS011;8375;33.594;-117.718;2022-12-08T03:14:42;3.13;;;1.37;;
16524;SDS011;8375;33.594;-117.718;2022-12-08T03:17:13;3.37;;;1.60;;
16524;SDS011;8375;33.594;-117.718;2022-12-08T03:19:45;3.57;;;1.63;;
16524;SDS011;8375;33.594;-117.718;2022-12-08T03:22:16;3.53;;;1.40;;
16524;SDS011;8375;33.594;-117.718;2022-12-08T03:24:58;2.90;;;1.80;;
16524;SDS011;8375;33.594;-117.718;2022-12-08T03:27:28;4.70;;;1.83;;
16524;SDS011;8375;33.594;-117.718;2022-12-08T03:29:59;4.20;;;2.20;;
16524;SDS011;8375;33.594;-117.718;2022-12-08T03:32:29;3.30;;;1.77;;
16524;SDS011;8375;33.594;-117.718;2022-12-08T03:35:02;5.20;;;2.03;;
16524;SDS011;8375;33.594;-117.718;2022-12-08T03:37:33;4.10;;;1.93;;
16524;SDS011;8375;33.594;-117.718;2022-12-08T03:40:04;5.23;;;1.50;;
16524;SDS011;8375;33.594;-117.718;2022-12-08T03:42:35;5.83;;;1.80;;
16524;SDS011;8375;33.594;-117.718;2022-12-08T03:45:04;3.60;;;1.90;;
16524;SDS011;8375;33.594;-117.718;2022-12-08T03:47:34;4.83;;;1.90;;
16524;SDS011;8375;33.594;-117.718;2022-12-08T03:50:04;10.00;;;2.03;;
16524;SDS011;8375;33.594;-117.718;2022-12-08T03:52:35;7.57;;;2.00;;
16524;SDS011;8375;33.594;-117.718;2022-12-08T03:55:07;4.27;;;2.17;;
16524;SDS011;8375;33.594;-117.718;2022-12-08T03:57:36;3.53;;;2.30;;
16524;SDS011;8375;33.594;-117.718;2022-12-08T04:00:06;2.63;;;2.00;;
16524;SDS011;8375;33.594;-117.718;2022-12-08T04:02:40;4.83;;;2.43;;
16524;SDS011;8375;33.594;-117.718;2022-12-08T04:05:09;7.70;;;2.80;;
16524;SDS011;8375;33.594;-117.718;2022-12-08T04:07:38;3.60;;;2.40;;
16524;SDS011;8375;33.594;-117.718;2022-12-08T04:10:09;5.10;;;2.63;;
16524;SDS011;8375;33.594;-117.718;2022-12-08T04:12:38;4.33;;;2.20;;
16524;SDS011;8375;33.594;-117.718;2022-12-08T04:15:07;6.80;;;2.47;;
16524;SDS011;8375;33.594;-117.718;2022-12-08T04:17:37;6.10;;;2.40;;
16524;SDS011;8375;33.594;-117.718;2022-12-08T04:20:06;5.50;;;2.03;;
16524;SDS011;8375;33.594;-117.718;2022-12-08T04:22:35;4.40;;;1.90;;
16524;SDS011;8375;33.594;-117.718;2022-12-08T04:25:04;5.63;;;1.80;;
16524;SDS011;8375;33.594;-117.718;2022-12-08T04:27:35;5.27;;;2.10;;
16524;SDS011;8375;33.594;-117.718;2022-12-08T04:30:05;3.93;;;1.60;;
16524;SDS011;8375;33.594;-117.718;2022-12-08T04:32:34;4.17;;;2.07;;
16524;SDS011;8375;33.594;-117.718;2022-12-08T04:35:03;4.83;;;2.60;;
16524;SDS011;8375;33.594;-117.718;2022-12-08T04:37:33;8.57;;;2.63;;
16524;SDS011;8375;33.594;-117.718;2022-12-08T04:40:03;4.33;;;2.30;;
16524;SDS011;8375;33.594;-117.718;2022-12-08T04:42:35;4.30;;;2.00;;
16524;SDS011;8375;33.594;-117.718;2022-12-08T04:45:05;5.10;;;2.30;;
16524;SDS011;8375;33.594;-117.718;2022-12-08T04:47:34;3.03;;;2.00;;
16524;SDS011;8375;33.594;-117.718;2022-12-08T04:50:04;5.77;;;2.20;;
16524;SDS011;8375;33.594;-117.718;2022-12-08T04:52:34;6.83;;;2.07;;
16524;SDS011;8375;33.594;-117.718;2022-12-08T04:55:04;6.70;;;1.80;;
16524;SDS011;8375;33.594;-117.718;2022-12-08T04:57:35;4.30;;;2.30;;
16524;SDS011;8375;33.594;-117.718;2022-12-08T05:00:04;4.33;;;2.40;;
16524;SDS011;8375;33.594;-117.718;2022-12-08T05:02:34;3.87;;;2.20;;
16524;SDS011;8375;33.594;-117.718;2022-12-08T05:05:04;4.10;;;1.70;;
16524;SDS011;8375;33.594;-117.718;2022-12-08T05:07:34;4.30;;;1.73;;
16524;SDS011;8375;33.594;-117.718;2022-12-08T05:10:04;3.90;;;1.53;;
16524;SDS011;8375;33.594;-117.718;2022-12-08T05:12:35;4.57;;;1.70;;
16524;SDS011;8375;33.594;-117.718;2022-12-08T05:15:05;3.70;;;1.77;;
16524;SDS011;8375;33.594;-117.718;2022-12-08T05:17:35;3.90;;;2.30;;
16524;SDS011;8375;33.594;-117.718;2022-12-08T05:20:04;5.33;;;2.50;;
16524;SDS011;8375;33.594;-117.718;2022-12-08T05:22:34;5.07;;;2.50;;
16524;SDS011;8375;33.594;-117.718;2022-12-08T05:25:03;3.77;;;2.43;;
16524;SDS011;8375;33.594;-117.718;2022-12-08T05:27:31;5.70;;;2.37;;
16524;SDS011;8375;33.594;-117.718;2022-12-08T05:30:02;4.53;;;2.50;;
16524;SDS011;8375;33.594;-117.718;2022-12-08T05:32:31;5.00;;;3.00;;
16524;SDS011;8375;33.594;-117.718;2022-12-08T05:35:00;5.13;;;3.03;;
16524;SDS011;8375;33.594;-117.718;2022-12-08T05:37:29;6.43;;;3.53;;
16524;SDS011;8375;33.594;-117.718;2022-12-08T05:39:58;14.73;;;7.67;;
16524;SDS011;8375;33.594;-117.718;2022-12-08T05:42:27;8.17;;;5.57;;
16524;SDS011;8375;33.594;-117.718;2022-12-08T05:44:55;7.60;;;4.97;;
16524;SDS011;8375;33.594;-117.718;2022-12-08T05:47:25;7.80;;;4.60;;
16524;SDS011;8375;33.594;-117.718;2022-12-08T05:49:54;7.47;;;3.73;;
16524;SDS011;8375;33.594;-117.718;2022-12-08T05:52:23;6.23;;;4.00;;
16524;SDS011;8375;33.594;-117.718;2022-12-08T05:54:52;5.63;;;3.27;;
16524;SDS011;8375;33.594;-117.718;2022-12-08T05:57:21;5.27;;;3.13;;
16524;SDS011;8375;33.594;-117.718;2022-12-08T05:59:49;7.97;;;3.07;;
16524;SDS011;8375;33.594;-117.718;2022-12-08T06:02:18;4.80;;;2.67;;
16524;SDS011;8375;33.594;-117.718;2022-12-08T06:04:48;6.30;;;3.30;;
16524;SDS011;8375;33.594;-117.718;2022-12-08T06:07:17;9.67;;;3.63;;
16524;SDS011;8375;33.594;-117.718;2022-12-08T06:09:45;6.23;;;3.00;;
16524;SDS011;8375;33.594;-117.718;2022-12-08T06:12:14;8.60;;;2.87;;
16524;SDS011;8375;33.594;-117.718;2022-12-08T06:14:43;5.13;;;3.10;;
16524;SDS011;8375;33.594;-117.718;2022-12-08T06:17:12;5.47;;;3.70;;
16524;SDS011;8375;33.594;-117.718;2022-12-08T06:19:41;8.47;;;4.00;;
16524;SDS011;8375;33.594;-117.718;2022-12-08T06:22:11;7.17;;;3.23;;
16524;SDS011;8375;33.594;-117.718;2022-12-08T06:24:40;5.87;;;3.37;;
16524;SDS011;8375;33.594;-117.718;2022-12-08T06:27:08;4.30;;;2.97;;
16524;SDS011;8375;33.594;-117.718;2022-12-08T06:29:37;4.20;;;3.40;;
16524;SDS011;8375;33.594;-117.718;2022-12-08T06:32:06;4.17;;;3.10;;
16524;SDS011;8375;33.594;-117.718;2022-12-08T06:34:36;6.60;;;2.90;;
16524;SDS011;8375;33.594;-117.718;2022-12-08T06:37:05;5.73;;;3.87;;
16524;SDS011;8375;33.594;-117.718;2022-12-08T06:39:35;7.40;;;3.80;;
16524;SDS011;8375;33.594;-117.718;2022-12-08T06:42:03;4.70;;;3.30;;
16524;SDS011;8375;33.594;-117.718;2022-12-08T06:44:49;8.57;;;3.57;;
16524;SDS011;8375;33.594;-117.718;2022-12-08T06:47:19;6.23;;;3.60;;
16524;SDS011;8375;33.594;-117.718;2022-12-08T06:49:48;6.17;;;3.47;;
16524;SDS011;8375;33.594;-117.718;2022-12-08T06:52:17;6.10;;;3.70;;
16524;SDS011;8375;33.594;-117.718;2022-12-08T06:54:47;6.83;;;3.97;;
16524;SDS011;8375;33.594;-117.718;2022-12-08T06:57:16;5.87;;;4.27;;
16524;SDS011;8375;33.594;-117.718;2022-12-08T06:59:45;5.70;;;3.53;;
16524;SDS011;8375;33.594;-117.718;2022-12-08T07:02:14;4.57;;;4.17;;
16524;SDS011;8375;33.594;-117.718;2022-12-08T07:04:44;5.27;;;4.27;;
16524;SDS011;8375;33.594;-117.718;2022-12-08T07:07:13;4.77;;;3.60;;
16524;SDS011;8375;33.594;-117.718;2022-12-08T07:09:42;6.47;;;4.07;;
16524;SDS011;8375;33.594;-117.718;2022-12-08T07:12:12;6.10;;;3.77;;
16524;SDS011;8375;33.594;-117.718;2022-12-08T07:14:41;8.27;;;4.43;;
16524;SDS011;8375;33.594;-117.718;2022-12-08T07:17:09;5.33;;;4.07;;
16524;SDS011;8375;33.594;-117.718;2022-12-08T07:19:38;5.93;;;4.27;;
16524;SDS011;8375;33.594;-117.718;2022-12-08T07:22:07;7.13;;;4.60;;
16524;SDS011;8375;33.594;-117.718;2022-12-08T07:24:35;6.37;;;4.83;;
16524;SDS011;8375;33.594;-117.718;2022-12-08T07:27:04;5.83;;;4.00;;
16524;SDS011;8375;33.594;-117.718;2022-12-08T07:29:35;8.50;;;4.77;;
16524;SDS011;8375;33.594;-117.718;2022-12-08T07:32:03;7.07;;;4.33;;
16524;SDS011;8375;33.594;-117.718;2022-12-08T07:34:34;7.07;;;4.20;;
16524;SDS011;8375;33.594;-117.718;2022-12-08T07:37:03;7.17;;;3.80;;
16524;SDS011;8375;33.594;-117.718;2022-12-08T07:39:32;6.10;;;4.40;;
16524;SDS011;8375;33.594;-117.718;2022-12-08T07:42:00;5.87;;;4.53;;
16524;SDS011;8375;33.594;-117.718;2022-12-08T07:44:29;7.53;;;4.73;;
16524;SDS011;8375;33.594;-117.718;2022-12-08T07:47:00;5.90;;;3.80;;
16524;SDS011;8375;33.594;-117.718;2022-12-08T07:49:28;6.87;;;4.20;;
16524;SDS011;8375;33.594;-117.718;2022-12-08T07:51:57;7.83;;;4.40;;
16524;SDS011;8375;33.594;-117.718;2022-12-08T07:54:26;5.80;;;4.00;;
16524;SDS011;8375;33.594;-117.718;2022-12-08T07:56:56;5.53;;;3.97;;
16524;SDS011;8375;33.594;-117.718;2022-12-08T07:59:24;5.67;;;3.93;;
16524;SDS011;8375;33.594;-117.718;2022-12-08T08:01:53;7.20;;;4.70;;
16524;SDS011;8375;33.594;-117.718;2022-12-08T08:04:23;5.23;;;4.27;;
16524;SDS011;8375;33.594;-117.718;2022-12-08T08:06:52;7.63;;;4.13;;
16524;SDS011;8375;33.594;-117.718;2022-12-08T08:09:21;6.47;;;4.17;;
16524;SDS011;8375;33.594;-117.718;2022-12-08T08:11:49;5.93;;;4.10;;
16524;SDS011;8375;33.594;-117.718;2022-12-08T08:14:18;6.70;;;4.60;;
16524;SDS011;8375;33.594;-117.718;2022-12-08T08:16:47;7.57;;;4.63;;
16524;SDS011;8375;33.594;-117.718;2022-12-08T08:19:16;8.30;;;4.70;;
16524;SDS011;8375;33.594;-117.718;2022-12-08T08:21:46;5.73;;;4.30;;
16524;SDS011;8375;33.594;-117.718;2022-12-08T08:24:15;7.50;;;4.50;;
16524;SDS011;8375;33.594;-117.718;2022-12-08T08:26:43;8.37;;;4.70;;
16524;SDS011;8375;33.594;-117.718;2022-12-08T08:29:12;6.70;;;5.10;;
16524;SDS011;8375;33.594;-117.718;2022-12-08T08:31:41;8.43;;;5.37;;
16524;SDS011;8375;33.594;-117.718;2022-12-08T08:34:10;7.30;;;5.77;;
16524;SDS011;8375;33.594;-117.718;2022-12-08T08:36:39;7.73;;;5.50;;
16524;SDS011;8375;33.594;-117.718;2022-12-08T08:39:09;8.10;;;5.63;;
16524;SDS011;8375;33.594;-117.718;2022-12-08T08:41:38;9.70;;;5.87;;
16524;SDS011;8375;33.594;-117.718;2022-12-08T08:44:07;9.40;;;5.47;;
16524;SDS011;8375;33.594;-117.718;2022-12-08T08:46:35;8.67;;;5.43;;
16524;SDS011;8375;33.594;-117.718;2022-12-08T08:49:04;8.73;;;6.50;;
16524;SDS011;8375;33.594;-117.718;2022-12-08T08:51:32;8.53;;;5.33;;
16524;SDS011;8375;33.594;-117.718;2022-12-08T08:54:01;7.30;;;5.53;;
16524;SDS011;8375;33.594;-117.718;2022-12-08T08:56:31;9.97;;;6.00;;
16524;SDS011;8375;33.594;-117.718;2022-12-08T08:59:00;7.47;;;5.40;;
16524;SDS011;8375;33.594;-117.718;2022-12-08T09:01:29;6.37;;;5.67;;
16524;SDS011;8375;33.594;-117.718;2022-12-08T09:03:57;8.57;;;5.70;;
16524;SDS011;8375;33.594;-117.718;2022-12-08T09:06:26;8.37;;;5.47;;
16524;SDS011;8375;33.594;-117.718;2022-12-08T09:08:55;8.60;;;5.40;;
16524;SDS011;8375;33.594;-117.718;2022-12-08T09:11:23;7.97;;;5.00;;
16524;SDS011;8375;33.594;-117.718;2022-12-08T09:13:54;9.90;;;5.07;;
16524;SDS011;8375;33.594;-117.718;2022-12-08T09:16:22;6.63;;;5.77;;
16524;SDS011;8375;33.594;-117.718;2022-12-08T09:18:51;7.37;;;5.07;;
16524;SDS011;8375;33.594;-117.718;2022-12-08T09:21:20;10.33;;;5.43;;
16524;SDS011;8375;33.594;-117.718;2022-12-08T09:23:51;9.67;;;4.63;;
16524;SDS011;8375;33.594;-117.718;2022-12-08T09:26:22;5.13;;;4.57;;
16524;SDS011;8375;33.594;-117.718;2022-12-08T09:28:51;7.37;;;4.63;;
16524;SDS011;8375;33.594;-117.718;2022-12-08T09:31:22;6.87;;;4.13;;
16524;SDS011;8375;33.594;-117.718;2022-12-08T09:33:51;7.53;;;4.00;;
16524;SDS011;8375;33.594;-117.718;2022-12-08T09:36:20;6.97;;;3.60;;
16524;SDS011;8375;33.594;-117.718;2022-12-08T09:38:49;4.33;;;3.63;;
16524;SDS011;8375;33.594;-117.718;2022-12-08T09:41:20;6.50;;;3.57;;
16524;SDS011;8375;33.594;-117.718;2022-12-08T09:44:00;6.47;;;2.90;;
16524;SDS011;8375;33.594;-117.718;2022-12-08T09:46:39;4.00;;;2.90;;
16524;SDS011;8375;33.594;-117.718;2022-12-08T09:49:11;5.67;;;2.80;;
16524;SDS011;8375;33.594;-117.718;2022-12-08T09:51:43;3.83;;;2.60;;
16524;SDS011;8375;33.594;-117.718;2022-12-08T09:54:13;5.77;;;2.77;;
16524;SDS011;8375;33.594;-117.718;2022-12-08T09:56:48;3.40;;;2.40;;
16524;SDS011;8375;33.594;-117.718;2022-12-08T09:59:23;3.60;;;2.43;;
16524;SDS011;8375;33.594;-117.718;2022-12-08T10:01:55;3.70;;;1.90;;
16524;SDS011;8375;33.594;-117.718;2022-12-08T10:04:25;4.67;;;2.30;;
16524;SDS011;8375;33.594;-117.718;2022-12-08T10:06:59;3.43;;;2.10;;
16524;SDS011;8375;33.594;-117.718;2022-12-08T10:09:36;5.93;;;2.60;;
16524;SDS011;8375;33.594;-117.718;2022-12-08T10:12:11;3.80;;;2.97;;
16524;SDS011;8375;33.594;-117.718;2022-12-08T10:14:49;5.00;;;3.30;;
16524;SDS011;8375;33.594;-117.718;2022-12-08T10:17:25;5.77;;;3.00;;
16524;SDS011;8375;33.594;-117.718;2022-12-08T10:19:59;4.10;;;2.40;;
16524;SDS011;8375;33.594;-117.718;2022-12-08T10:22:30;2.97;;;2.60;;
16524;SDS011;8375;33.594;-117.718;2022-12-08T10:25:03;5.33;;;2.67;;
16524;SDS011;8375;33.594;-117.718;2022-12-08T10:27:37;3.03;;;2.20;;
16524;SDS011;8375;33.594;-117.718;2022-12-08T10:30:11;4.47;;;2.20;;
16524;SDS011;8375;33.594;-117.718;2022-12-08T10:32:43;4.03;;;2.10;;
16524;SDS011;8375;33.594;-117.718;2022-12-08T10:35:15;4.60;;;2.30;;
16524;SDS011;8375;33.594;-117.718;2022-12-08T10:37:52;2.63;;;2.10;;
16524;SDS011;8375;33.594;-117.718;2022-12-08T10:40:23;4.90;;;2.13;;
16524;SDS011;8375;33.594;-117.718;2022-12-08T10:42:55;4.97;;;2.33;;
16524;SDS011;8375;33.594;-117.718;2022-12-08T10:45:27;2.57;;;2.37;;
16524;SDS011;8375;33.594;-117.718;2022-12-08T10:47:59;2.50;;;2.10;;
16524;SDS011;8375;33.594;-117.718;2022-12-08T10:50:30;4.00;;;2.53;;
16524;SDS011;8375;33.594;-117.718;2022-12-08T10:53:03;6.60;;;2.93;;
16524;SDS011;8375;33.594;-117.718;2022-12-08T10:55:40;5.43;;;3.07;;
16524;SDS011;8375;33.594;-117.718;2022-12-08T10:58:26;5.17;;;3.40;;
16524;SDS011;8375;33.594;-117.718;2022-12-08T11:00:59;6.57;;;3.07;;
16524;SDS011;8375;33.594;-117.718;2022-12-08T11:03:32;3.93;;;2.83;;
16524;SDS011;8375;33.594;-117.718;2022-12-08T11:06:08;4.67;;;2.67;;
16524;SDS011;8375;33.594;-117.718;2022-12-08T11:08:48;4.40;;;2.67;;
16524;SDS011;8375;33.594;-117.718;2022-12-08T11:11:19;4.10;;;2.70;;
16524;SDS011;8375;33.594;-117.718;2022-12-08T11:14:04;4.30;;;2.50;;
16524;SDS011;8375;33.594;-117.718;2022-12-08T11:16:36;4.47;;;2.97;;
16524;SDS011;8375;33.594;-117.718;2022-12-08T11:19:13;3.93;;;3.00;;
16524;SDS011;8375;33.594;-117.718;2022-12-08T11:21:44;3.70;;;2.73;;
16524;SDS011;8375;33.594;-117.718;2022-12-08T11:27:02;4.40;;;2.63;;
16524;SDS011;8375;33.594;-117.718;2022-12-08T11:29:32;5.33;;;2.27;;
16524;SDS011;8375;33.594;-117.718;2022-12-08T11:32:05;2.60;;;2.10;;
16524;SDS011;8375;33.594;-117.718;2022-12-08T11:34:39;3.03;;;2.30;;
16524;SDS011;8375;33.594;-117.718;2022-12-08T11:37:13;4.83;;;2.23;;
16524;SDS011;8375;33.594;-117.718;2022-12-08T11:39:47;4.00;;;2.43;;
16524;SDS011;8375;33.594;-117.718;2022-12-08T11:42:19;2.87;;;2.47;;
16524;SDS011;8375;33.594;-117.718;2022-12-08T11:44:52;4.97;;;2.33;;
16524;SDS011;8375;33.594;-117.718;2022-12-08T11:47:27;4.97;;;2.50;;
16524;SDS011;8375;33.594;-117.718;2022-12-08T11:50:00;5.70;;;2.53;;
16524;SDS011;8375;33.594;-117.718;2022-12-08T11:52:34;4.90;;;3.00;;
16524;SDS011;8375;33.594;-117.718;2022-12-08T11:55:15;2.80;;;2.50;;
16524;SDS011;8375;33.594;-117.718;2022-12-08T11:57:56;5.60;;;2.97;;
16524;SDS011;8375;33.594;-117.718;2022-12-08T12:00:36;4.87;;;2.40;;
16524;SDS011;8375;33.594;-117.718;2022-12-08T12:03:07;5.17;;;2.37;;
16524;SDS011;8375;33.594;-117.718;2022-12-08T12:05:47;3.20;;;2.50;;
16524;SDS011;8375;33.594;-117.718;2022-12-08T12:08:30;4.30;;;2.37;;
16524;SDS011;8375;33.594;-117.718;2022-12-08T12:11:12;4.23;;;2.40;;
16524;SDS011;8375;33.594;-117.718;2022-12-08T12:14:04;3.33;;;2.40;;
16524;SDS011;8375;33.594;-117.718;2022-12-08T12:16:49;3.83;;;2.87;;
16524;SDS011;8375;33.594;-117.718;2022-12-08T12:19:31;3.63;;;2.60;;
16524;SDS011;8375;33.594;-117.718;2022-12-08T12:22:07;4.07;;;2.20;;
16524;SDS011;8375;33.594;-117.718;2022-12-08T12:24:41;4.50;;;2.47;;
16524;SDS011;8375;33.594;-117.718;2022-12-08T12:27:20;4.37;;;2.20;;
16524;SDS011;8375;33.594;-117.718;2022-12-08T12:29:53;7.97;;;2.30;;
16524;SDS011;8375;33.594;-117.718;2022-12-08T12:32:24;2.87;;;2.07;;
16524;SDS011;8375;33.594;-117.718;2022-12-08T12:34:56;6.60;;;2.50;;
16524;SDS011;8375;33.594;-117.718;2022-12-08T12:37:34;5.63;;;2.60;;
16524;SDS011;8375;33.594;-117.718;2022-12-08T12:40:04;3.57;;;2.50;;
16524;SDS011;8375;33.594;-117.718;2022-12-08T12:42:43;3.03;;;2.30;;
16524;SDS011;8375;33.594;-117.718;2022-12-08T12:45:24;3.37;;;1.97;;
16524;SDS011;8375;33.594;-117.718;2022-12-08T12:48:19;3.60;;;2.30;;
16524;SDS011;8375;33.594;-117.718;2022-12-08T12:50:54;3.60;;;2.20;;
16524;SDS011;8375;33.594;-117.718;2022-12-08T12:59:20;4.00;;;2.33;;
16524;SDS011;8375;33.594;-117.718;2022-12-08T13:02:09;3.23;;;2.07;;
16524;SDS011;8375;33.594;-117.718;2022-12-08T13:04:51;4.53;;;2.03;;
16524;SDS011;8375;33.594;-117.718;2022-12-08T13:07:25;5.13;;;2.07;;
16524;SDS011;8375;33.594;-117.718;2022-12-08T13:09:57;4.17;;;2.27;;
16524;SDS011;8375;33.594;-117.718;2022-12-08T13:12:28;4.67;;;2.73;;
16524;SDS011;8375;33.594;-117.718;2022-12-08T13:15:00;3.63;;;2.40;;
16524;SDS011;8375;33.594;-117.718;2022-12-08T13:17:32;2.77;;;1.90;;
16524;SDS011;8375;33.594;-117.718;2022-12-08T13:20:04;4.50;;;2.17;;
16524;SDS011;8375;33.594;-117.718;2022-12-08T13:25:51;4.40;;;1.90;;
16524;SDS011;8375;33.594;-117.718;2022-12-08T13:31:39;5.10;;;1.73;;
16524;SDS011;8375;33.594;-117.718;2022-12-08T13:34:11;2.57;;;1.70;;
16524;SDS011;8375;33.594;-117.718;2022-12-08T13:36:48;2.53;;;1.90;;
16524;SDS011;8375;33.594;-117.718;2022-12-08T13:39:25;4.60;;;1.80;;
16524;SDS011;8375;33.594;-117.718;2022-12-08T13:41:57;2.20;;;2.00;;
16524;SDS011;8375;33.594;-117.718;2022-12-08T13:44:34;4.73;;;2.00;;
16524;SDS011;8375;33.594;-117.718;2022-12-08T13:47:09;3.90;;;1.60;;
16524;SDS011;8375;33.594;-117.718;2022-12-08T13:49:41;3.73;;;1.77;;
16524;SDS011;8375;33.594;-117.718;2022-12-08T13:52:17;6.30;;;2.00;;
16524;SDS011;8375;33.594;-117.718;2022-12-08T13:54:58;3.83;;;1.80;;
16524;SDS011;8375;33.594;-117.718;2022-12-08T13:57:29;2.37;;;1.90;;
16524;SDS011;8375;33.594;-117.718;2022-12-08T14:00:02;3.17;;;2.17;;
16524;SDS011;8375;33.594;-117.718;2022-12-08T14:02:33;2.17;;;1.70;;
16524;SDS011;8375;33.594;-117.718;2022-12-08T14:05:04;2.57;;;1.90;;
16524;SDS011;8375;33.594;-117.718;2022-12-08T14:07:33;2.87;;;1.90;;
16524;SDS011;8375;33.594;-117.718;2022-12-08T14:10:05;4.03;;;1.87;;
16524;SDS011;8375;33.594;-117.718;2022-12-08T14:12:36;4.13;;;2.03;;
16524;SDS011;8375;33.594;-117.718;2022-12-08T14:15:06;5.47;;;1.83;;
16524;SDS011;8375;33.594;-117.718;2022-12-08T14:17:39;5.03;;;2.00;;
16524;SDS011;8375;33.594;-117.718;2022-12-08T14:20:16;7.67;;;1.93;;
16524;SDS011;8375;33.594;-117.718;2022-12-08T14:22:50;2.70;;;1.53;;
16524;SDS011;8375;33.594;-117.718;2022-12-08T14:25:21;3.00;;;1.67;;
16524;SDS011;8375;33.594;-117.718;2022-12-08T14:27:54;2.57;;;1.63;;
16524;SDS011;8375;33.594;-117.718;2022-12-08T14:30:27;3.47;;;2.20;;
16524;SDS011;8375;33.594;-117.718;2022-12-08T14:32:58;4.80;;;1.80;;
16524;SDS011;8375;33.594;-117.718;2022-12-08T14:35:29;5.43;;;1.70;;
16524;SDS011;8375;33.594;-117.718;2022-12-08T14:38:00;3.03;;;1.70;;
16524;SDS011;8375;33.594;-117.718;2022-12-08T14:40:32;2.90;;;1.50;;
16524;SDS011;8375;33.594;-117.718;2022-12-08T14:43:11;4.70;;;1.77;;
16524;SDS011;8375;33.594;-117.718;2022-12-08T14:45:46;3.43;;;1.60;;
16524;SDS011;8375;33.594;-117.718;2022-12-08T14:48:18;2.70;;;1.67;;
16524;SDS011;8375;33.594;-117.718;2022-12-08T14:50:58;2.90;;;2.00;;
16524;SDS011;8375;33.594;-117.718;2022-12-08T14:53:34;3.00;;;1.60;;
16524;SDS011;8375;33.594;-117.718;2022-12-08T14:56:07;3.00;;;1.70;;
16524;SDS011;8375;33.594;-117.718;2022-12-08T14:58:44;4.13;;;2.10;;
16524;SDS011;8375;33.594;-117.718;2022-12-08T15:01:16;3.37;;;2.23;;
16524;SDS011;8375;33.594;-117.718;2022-12-08T15:03:50;4.73;;;2.40;;
16524;SDS011;8375;33.594;-117.718;2022-12-08T15:06:20;3.80;;;2.10;;
16524;SDS011;8375;33.594;-117.718;2022-12-08T15:08:50;4.53;;;2.23;;
16524;SDS011;8375;33.594;-117.718;2022-12-08T15:11:34;3.70;;;1.93;;
16524;SDS011;8375;33.594;-117.718;2022-12-08T15:16:54;4.03;;;1.70;;
16524;SDS011;8375;33.594;-117.718;2022-12-08T15:19:25;3.47;;;1.80;;